Terminal Aerodrome Forecast
Issued by NWS New Orleans/Baton Rouge, LA

Home | Current Version | Previous Version | Text Only | Print | Product List | Glossary On
Versions: 1 2 3 4 5 6 7 8 9 10 11 12 13 14 15 16 17 18 19 20
000
FTUS44 KLIX 281100
TAFNEW
TAF
KNEW 281130Z 2812/2912 29016KT P6SM SCT020 BKN045
      TEMPO 2819/2823 VRB10G20KT 3SM -TSRA BKN035CB
     FM290100 28005KT P6SM BKN040=

USA.gov is the U.S. government's official web portal to all federal, state and local government web resources and services.